createdAt,value
2018-06-22T00:00:33.298Z,205.40
2018-06-22T00:01:33.328Z,199.40
2018-06-22T00:02:33.356Z,207.20
2018-06-22T00:03:33.424Z,198.60
2018-06-22T00:04:33.462Z,199.00
2018-06-22T00:05:33.496Z,202.60
2018-06-22T00:06:33.579Z,190.10
2018-06-22T00:07:33.613Z,220.00
2018-06-22T00:08:33.677Z,204.90
2018-06-22T00:09:33.722Z,228.10
2018-06-22T00:10:33.752Z,201.40
2018-06-22T00:11:33.790Z,231.20
2018-06-22T00:12:33.829Z,226.00
2018-06-22T00:13:33.896Z,216.10
2018-06-22T00:14:33.935Z,234.30
2018-06-22T00:15:34.176Z,220.60
2018-06-22T00:16:34.025Z,218.40
2018-06-22T00:17:34.066Z,222.20
2018-06-22T00:18:34.144Z,216.80
2018-06-22T00:19:34.184Z,203.80
2018-06-22T00:20:34.209Z,187.70
2018-06-22T00:21:34.255Z,181.10
2018-06-22T00:22:34.300Z,182.60
2018-06-22T00:23:34.361Z,177.60
2018-06-22T00:24:34.366Z,169.60
2018-06-22T00:25:34.477Z,164.30
2018-06-22T00:26:34.477Z,155.60
2018-06-22T00:27:34.542Z,158.50
2018-06-22T00:28:34.567Z,170.00
2018-06-22T00:29:34.612Z,153.20
2018-06-22T00:30:34.675Z,135.40
2018-06-22T00:31:34.710Z,128.50
2018-06-22T00:32:34.756Z,139.30
2018-06-22T00:33:34.803Z,125.20
2018-06-22T00:34:34.866Z,110.40
2018-06-22T00:35:34.910Z,121.90
2018-06-22T00:36:34.953Z,117.50
2018-06-22T00:37:34.992Z,123.90
2018-06-22T00:38:35.048Z,118.30
2018-06-22T00:39:35.085Z,125.30
2018-06-22T00:40:35.123Z,125.00
2018-06-22T00:41:35.173Z,114.70
2018-06-22T00:42:35.228Z,102.30
2018-06-22T00:43:35.296Z,121.90
2018-06-22T00:44:35.324Z,111.80
2018-06-22T00:45:35.371Z,107.10
2018-06-22T00:46:35.403Z,109.00
2018-06-22T00:47:35.455Z,107.40
2018-06-22T00:48:35.501Z,114.90
2018-06-22T00:49:35.562Z,103.50
2018-06-22T00:50:35.593Z,106.00
2018-06-22T00:51:35.651Z,106.30
2018-06-22T00:52:35.681Z,102.90
2018-06-22T00:53:35.718Z,95.50
2018-06-22T00:54:35.788Z,106.00
2018-06-22T00:55:35.834Z,124.40
2018-06-22T00:56:35.866Z,121.10
2018-06-22T00:57:35.900Z,108.30
2018-06-22T00:58:35.979Z,107.20
2018-06-22T00:59:36.006Z,100.10
2018-06-22T01:00:36.037Z,109.30
2018-06-22T01:01:36.091Z,103.70
2018-06-22T01:02:36.154Z,106.30
2018-06-22T01:03:36.189Z,105.80
2018-06-22T01:04:36.238Z,98.00
2018-06-22T01:05:36.279Z,106.00
2018-06-22T01:06:36.329Z,101.60
2018-06-22T01:07:36.411Z,98.70
2018-06-22T01:08:36.423Z,97.10
2018-06-22T01:09:36.470Z,106.80
2018-06-22T01:10:36.507Z,100.80
2018-06-22T01:11:36.572Z,122.60
2018-06-22T01:12:36.598Z,101.10
2018-06-22T01:13:36.665Z,108.80
2018-06-22T01:14:36.721Z,102.90
2018-06-22T01:15:36.772Z,111.10
2018-06-22T01:16:36.826Z,113.10
2018-06-22T01:17:36.857Z,118.40
2018-06-22T01:18:36.903Z,117.10
2018-06-22T01:19:36.979Z,133.60
2018-06-22T01:20:36.982Z,133.80
2018-06-22T01:21:37.040Z,130.50
2018-06-22T01:22:37.074Z,133.90
2018-06-22T01:23:37.156Z,123.50
2018-06-22T01:24:37.169Z,128.90
2018-06-22T01:25:37.251Z,123.70
2018-06-22T01:26:37.272Z,118.80
2018-06-22T01:27:37.306Z,132.40
2018-06-22T01:28:37.368Z,125.80
2018-06-22T01:29:37.419Z,138.90
2018-06-22T01:30:37.466Z,138.90
2018-06-22T01:31:37.521Z,141.80
2018-06-22T01:32:37.546Z,135.90
2018-06-22T01:33:37.572Z,136.90
2018-06-22T01:34:37.644Z,148.90
2018-06-22T01:35:37.679Z,140.80
2018-06-22T01:36:37.738Z,143.50
2018-06-22T01:37:37.798Z,154.90
2018-06-22T01:38:37.812Z,157.20
2018-06-22T01:39:37.871Z,156.40
2018-06-22T01:40:37.918Z,147.00
2018-06-22T01:41:37.968Z,142.00
2018-06-22T01:42:38.026Z,166.40
2018-06-22T01:43:38.042Z,161.50
2018-06-22T01:44:38.085Z,153.50
2018-06-22T01:45:38.147Z,152.70
2018-06-22T01:46:38.199Z,151.10
2018-06-22T01:47:38.239Z,143.10
2018-06-22T01:48:38.281Z,159.10
2018-06-22T01:49:38.329Z,152.00
2018-06-22T01:50:38.375Z,149.10
2018-06-22T01:51:38.419Z,151.40
2018-06-22T01:52:38.485Z,138.10
2018-06-22T01:53:38.496Z,129.30
2018-06-22T01:54:38.566Z,127.20
2018-06-22T01:55:38.621Z,127.70
2018-06-22T01:56:38.655Z,121.40
2018-06-22T01:57:38.682Z,125.70
2018-06-22T01:58:38.725Z,112.90
2018-06-22T01:59:38.787Z,107.50
2018-06-22T02:00:38.850Z,111.40
2018-06-22T02:01:38.860Z,112.10
2018-06-22T02:02:38.953Z,120.00
2018-06-22T02:03:38.962Z,112.30
2018-06-22T02:04:39.018Z,112.50
2018-06-22T02:05:39.125Z,114.70
2018-06-22T02:06:39.099Z,109.70
2018-06-22T02:07:39.154Z,111.10
2018-06-22T02:08:39.228Z,106.90
2018-06-22T02:09:39.248Z,113.40
2018-06-22T02:10:39.516Z,108.30
2018-06-22T02:11:39.352Z,108.30
2018-06-22T02:12:39.392Z,101.70
2018-06-22T02:13:39.451Z,105.60
2018-06-22T02:14:39.475Z,106.00
2018-06-22T02:15:39.534Z,107.10
2018-06-22T02:16:39.554Z,105.40
2018-06-22T02:17:39.622Z,112.90
2018-06-22T02:18:39.677Z,107.10
2018-06-22T02:19:39.729Z,106.00
2018-06-22T02:20:39.767Z,105.80
2018-06-22T02:21:40.019Z,112.20
2018-06-22T02:22:39.848Z,111.60
2018-06-22T02:23:39.911Z,115.80
2018-06-22T02:24:39.950Z,114.90
2018-06-22T02:25:40.009Z,120.50
2018-06-22T02:26:40.041Z,115.00
2018-06-22T02:27:40.088Z,123.70
2018-06-22T02:28:40.130Z,119.80
2018-06-22T02:29:40.183Z,120.00
2018-06-22T02:30:40.222Z,118.10
2018-06-22T02:31:40.257Z,120.30
2018-06-22T02:32:40.301Z,127.00
2018-06-22T02:33:40.375Z,117.10
2018-06-22T02:34:40.393Z,122.10
2018-06-22T02:35:40.447Z,129.70
2018-06-22T02:36:40.476Z,144.00
2018-06-22T02:37:40.733Z,136.90
2018-06-22T02:38:40.585Z,132.10
2018-06-22T02:39:40.623Z,143.30
2018-06-22T02:40:40.673Z,146.40
2018-06-22T02:41:40.714Z,155.70
2018-06-22T02:42:40.787Z,134.60
2018-06-22T02:43:40.806Z,166.50
2018-06-22T02:44:40.872Z,159.20
2018-06-22T02:45:40.941Z,164.20
2018-06-22T02:46:41.008Z,159.30
2018-06-22T02:47:41.017Z,158.20
2018-06-22T02:48:41.064Z,165.10
2018-06-22T02:49:41.115Z,158.10
2018-06-22T02:50:41.147Z,168.30
2018-06-22T02:51:41.167Z,171.90
2018-06-22T02:52:41.240Z,179.00
2018-06-22T02:53:41.392Z,181.10
2018-06-22T02:54:41.325Z,178.10
2018-06-22T02:55:41.356Z,215.30
2018-06-22T02:56:41.410Z,201.10
2018-06-22T02:57:41.443Z,201.70
2018-06-22T02:58:41.521Z,215.10
2018-06-22T02:59:41.593Z,207.50
2018-06-22T03:00:41.812Z,224.90
2018-06-22T03:01:41.671Z,226.70
2018-06-22T03:02:41.704Z,233.60
2018-06-22T03:03:41.763Z,224.80
2018-06-22T03:04:41.795Z,229.40
2018-06-22T03:05:41.907Z,244.40
2018-06-22T03:06:41.879Z,256.80
2018-06-22T03:07:41.898Z,246.10
2018-06-22T03:08:41.980Z,261.60
2018-06-22T03:09:42.021Z,260.30
2018-06-22T03:10:42.062Z,284.10
2018-06-22T03:11:42.295Z,306.10
2018-06-22T03:12:42.159Z,308.80
2018-06-22T03:13:42.173Z,308.30
2018-06-22T03:14:42.257Z,336.50
2018-06-22T03:15:42.276Z,332.10
2018-06-22T03:16:42.359Z,329.90
2018-06-22T03:17:42.374Z,324.40
2018-06-22T03:18:42.429Z,343.40
2018-06-22T03:19:42.454Z,337.70
2018-06-22T03:20:42.498Z,361.70
2018-06-22T03:21:42.656Z,363.60
2018-06-22T03:22:42.592Z,379.70
2018-06-22T03:23:42.652Z,370.50
2018-06-22T03:24:42.691Z,396.70
2018-06-22T03:25:42.733Z,408.10
2018-06-22T03:26:42.983Z,421.60
2018-06-22T03:27:42.821Z,428.60
2018-06-22T03:28:42.862Z,478.20
2018-06-22T03:29:42.931Z,501.30
2018-06-22T03:30:42.997Z,528.90
2018-06-22T03:31:43.004Z,532.60
2018-06-22T03:32:43.168Z,571.80
2018-06-22T03:33:43.107Z,582.70
2018-06-22T03:34:43.138Z,585.80
2018-06-22T03:35:43.174Z,608.50
2018-06-22T03:36:43.218Z,636.40
2018-06-22T03:37:43.284Z,659.60
2018-06-22T03:38:43.324Z,704.50
2018-06-22T03:39:43.461Z,696.50
2018-06-22T03:40:43.401Z,704.90
2018-06-22T03:41:43.468Z,701.60
2018-06-22T03:42:43.480Z,717.30
2018-06-22T03:43:43.545Z,718.70
2018-06-22T03:44:43.800Z,750.30
2018-06-22T03:45:43.660Z,740.00
2018-06-22T03:46:43.667Z,761.20
2018-06-22T03:47:43.705Z,754.90
2018-06-22T03:48:43.783Z,741.80
2018-06-22T03:49:43.818Z,743.30
2018-06-22T03:50:43.948Z,731.20
2018-06-22T03:51:43.915Z,735.80
2018-06-22T03:52:43.971Z,740.50
2018-06-22T03:53:43.997Z,727.50
2018-06-22T03:54:44.044Z,694.90
2018-06-22T03:55:44.082Z,730.00
2018-06-22T03:56:44.368Z,742.60
2018-06-22T03:57:44.158Z,760.00
2018-06-22T03:58:44.237Z,760.00
2018-06-22T03:59:44.264Z,747.10
2018-06-22T04:00:44.287Z,761.90
2018-06-22T04:01:44.342Z,720.50
2018-06-22T04:02:44.424Z,745.70
2018-06-22T04:03:44.453Z,724.80
2018-06-22T04:04:44.495Z,746.40
2018-06-22T04:05:44.540Z,742.90
2018-06-22T04:06:44.589Z,736.50
2018-06-22T04:07:44.641Z,744.90
2018-06-22T04:08:44.686Z,787.00
2018-06-22T04:09:44.695Z,832.80
2018-06-22T04:10:44.754Z,808.30
2018-06-22T04:11:44.803Z,777.10
2018-06-22T04:12:44.872Z,778.20
2018-06-22T04:13:44.880Z,789.80
2018-06-22T04:14:44.929Z,786.70
2018-06-22T04:15:44.962Z,771.90
2018-06-22T04:16:45.050Z,734.90
2018-06-22T04:17:45.068Z,759.20
2018-06-22T04:18:45.123Z,762.10
2018-06-22T04:19:45.189Z,793.90
2018-06-22T04:20:45.195Z,781.00
2018-06-22T04:21:45.273Z,772.90
2018-06-22T04:22:45.280Z,791.20
2018-06-22T04:23:45.319Z,812.80
2018-06-22T04:24:45.582Z,818.00
2018-06-22T04:25:45.444Z,807.10
2018-06-22T04:26:45.464Z,819.90
2018-06-22T04:27:45.528Z,798.60
2018-06-22T04:28:45.558Z,781.10
2018-06-22T04:29:45.592Z,803.90
2018-06-22T04:30:45.634Z,824.10
2018-06-22T04:31:45.666Z,817.10
2018-06-22T04:32:45.733Z,827.60
2018-06-22T04:33:45.770Z,801.80
2018-06-22T04:34:45.827Z,839.40
2018-06-22T04:35:46.061Z,821.10
2018-06-22T04:36:45.910Z,818.50
2018-06-22T04:37:45.969Z,806.00
2018-06-22T04:38:46.053Z,801.30
2018-06-22T04:39:46.046Z,825.90
2018-06-22T04:40:46.084Z,819.00
2018-06-22T04:41:46.142Z,810.90
2018-06-22T04:42:46.191Z,825.60
2018-06-22T04:43:46.221Z,812.10
2018-06-22T04:44:46.249Z,815.40
2018-06-22T04:45:46.302Z,818.60
2018-06-22T04:46:46.327Z,799.30
2018-06-22T04:47:46.772Z,800.90
2018-06-22T04:48:46.428Z,803.30
2018-06-22T04:49:46.492Z,806.30
2018-06-22T04:50:46.532Z,794.10
2018-06-22T04:51:46.570Z,778.70
2018-06-22T04:52:46.623Z,791.00
2018-06-22T04:53:46.663Z,774.30
2018-06-22T04:54:46.726Z,793.00
2018-06-22T04:55:46.756Z,836.50
2018-06-22T04:56:46.770Z,821.40
2018-06-22T04:57:46.848Z,805.40
2018-06-22T04:58:46.872Z,840.30
2018-06-22T04:59:46.952Z,801.80
2018-06-22T05:00:46.969Z,815.40
2018-06-22T05:01:46.992Z,849.00
2018-06-22T05:02:47.076Z,847.60
2018-06-22T05:03:47.315Z,858.40
2018-06-22T05:04:47.143Z,842.60
2018-06-22T05:05:47.230Z,835.60
2018-06-22T05:06:47.235Z,844.70
2018-06-22T05:07:47.303Z,800.50
2018-06-22T05:08:47.317Z,835.90
2018-06-22T05:09:47.359Z,820.60
2018-06-22T05:10:47.639Z,821.20
2018-06-22T05:11:47.477Z,817.40
2018-06-22T05:12:47.523Z,825.70
2018-06-22T05:13:47.548Z,825.50
2018-06-22T05:14:47.583Z,807.50
2018-06-22T05:15:47.697Z,799.10
2018-06-22T05:16:47.680Z,829.20
2018-06-22T05:17:47.705Z,838.00
2018-06-22T05:18:47.758Z,828.30
2018-06-22T05:19:47.800Z,822.60
2018-06-22T05:20:47.866Z,787.70
2018-06-22T05:21:48.157Z,790.10
2018-06-22T05:22:47.954Z,806.40
2018-06-22T05:23:47.994Z,806.50
2018-06-22T05:24:48.098Z,780.50
2018-06-22T05:25:48.106Z,762.90
2018-06-22T05:26:48.118Z,782.70
2018-06-22T05:27:48.164Z,774.80
2018-06-22T05:28:48.211Z,769.60
2018-06-22T05:29:48.257Z,795.70
2018-06-22T05:30:48.330Z,775.70
2018-06-22T05:31:48.339Z,783.50
2018-06-22T05:32:48.381Z,782.80
2018-06-22T05:33:48.615Z,776.80
2018-06-22T05:34:48.456Z,765.30
2018-06-22T05:35:48.518Z,776.30
2018-06-22T05:36:48.574Z,784.10
2018-06-22T05:37:48.588Z,748.00
2018-06-22T05:38:48.675Z,761.30
2018-06-22T05:39:48.718Z,773.30
2018-06-22T05:40:48.729Z,765.80
2018-06-22T05:41:48.778Z,783.10
2018-06-22T05:42:48.821Z,768.80
2018-06-22T05:43:48.864Z,769.10
2018-06-22T05:44:49.118Z,776.60
2018-06-22T05:45:48.945Z,757.40
2018-06-22T05:46:49.028Z,772.20
2018-06-22T05:47:49.025Z,761.20
2018-06-22T05:48:49.106Z,789.30
2018-06-22T05:49:49.125Z,759.30
2018-06-22T05:50:49.265Z,766.50
2018-06-22T05:51:49.232Z,765.40
2018-06-22T05:52:49.281Z,787.20
2018-06-22T05:53:49.301Z,798.80
2018-06-22T05:54:49.358Z,801.20
2018-06-22T05:55:49.390Z,782.50
2018-06-22T05:56:49.702Z,790.70
2018-06-22T05:57:49.480Z,759.60
2018-06-22T05:58:49.514Z,776.80
2018-06-22T05:59:49.566Z,765.40
2018-06-22T06:00:49.629Z,757.10
2018-06-22T06:01:49.633Z,760.70
2018-06-22T06:02:49.682Z,783.90
2018-06-22T06:03:49.733Z,771.30
2018-06-22T06:04:49.756Z,758.70
2018-06-22T06:05:49.832Z,749.80
2018-06-22T06:06:49.884Z,760.50
2018-06-22T06:07:49.915Z,761.50
2018-06-22T06:08:50.158Z,761.50
2018-06-22T06:09:49.972Z,758.70
2018-06-22T06:10:50.047Z,766.90
2018-06-22T06:11:50.116Z,754.60
2018-06-22T06:12:50.111Z,759.50
2018-06-22T06:13:50.188Z,780.20
2018-06-22T06:14:50.233Z,776.90
2018-06-22T06:15:50.241Z,772.40
2018-06-22T06:16:50.294Z,819.50
2018-06-22T06:17:50.356Z,784.70
2018-06-22T06:18:50.398Z,768.50
2018-06-22T06:19:50.431Z,788.30
2018-06-22T06:20:50.486Z,777.00
2018-06-22T06:21:50.537Z,767.90
2018-06-22T06:22:50.571Z,771.00
2018-06-22T06:23:50.604Z,789.60
2018-06-22T06:24:50.639Z,786.40
2018-06-22T06:25:50.720Z,777.20
2018-06-22T06:26:50.759Z,777.50
2018-06-22T06:27:50.802Z,772.20
2018-06-22T06:28:50.819Z,748.50
2018-06-22T06:29:50.869Z,746.20
2018-06-22T06:30:50.909Z,741.30
2018-06-22T06:31:50.969Z,774.00
2018-06-22T06:32:51.012Z,786.70
2018-06-22T06:33:51.055Z,784.10
2018-06-22T06:34:51.105Z,781.60
2018-06-22T06:35:51.159Z,790.90
2018-06-22T06:36:51.196Z,785.60
2018-06-22T06:37:51.233Z,785.70
2018-06-22T06:38:51.286Z,771.20
2018-06-22T06:39:51.518Z,763.80
2018-06-22T06:40:51.354Z,757.10
2018-06-22T06:41:51.479Z,748.80
2018-06-22T06:42:51.426Z,763.70
2018-06-22T06:43:51.479Z,766.70
2018-06-22T06:44:51.523Z,760.60
2018-06-22T06:45:51.573Z,764.00
2018-06-22T06:46:51.609Z,769.50
2018-06-22T06:47:51.645Z,751.00
2018-06-22T06:48:51.686Z,749.20
2018-06-22T06:49:51.737Z,739.70
2018-06-22T06:50:51.783Z,761.00
2018-06-22T06:51:52.054Z,735.60
2018-06-22T06:52:51.856Z,719.40
2018-06-22T06:53:51.898Z,777.30
2018-06-22T06:54:51.989Z,741.70
2018-06-22T06:55:52.010Z,740.90
2018-06-22T06:56:52.096Z,747.00
2018-06-22T06:57:52.114Z,740.00
2018-06-22T06:58:52.128Z,743.20
2018-06-22T06:59:52.172Z,750.40
2018-06-22T07:00:52.219Z,745.50
2018-06-22T07:01:52.269Z,741.50
2018-06-22T07:02:52.329Z,757.70
2018-06-22T07:03:52.563Z,755.40
2018-06-22T07:04:52.391Z,757.40
2018-06-22T07:05:52.425Z,761.90
2018-06-22T07:06:52.475Z,784.80
2018-06-22T07:07:52.523Z,761.40
2018-06-22T07:08:52.578Z,758.10
2018-06-22T07:09:52.608Z,763.70
2018-06-22T07:10:52.630Z,747.80
2018-06-22T07:11:52.709Z,771.50
2018-06-22T07:12:52.766Z,804.20
2018-06-22T07:13:52.791Z,772.10
2018-06-22T07:14:52.821Z,781.30
2018-06-22T07:15:52.869Z,758.80
2018-06-22T07:16:52.897Z,771.50
2018-06-22T07:17:52.961Z,748.40
2018-06-22T07:18:53.197Z,763.70
2018-06-22T07:19:53.039Z,771.80
2018-06-22T07:20:53.096Z,766.20
2018-06-22T07:21:53.147Z,751.30
2018-06-22T07:22:53.204Z,747.90
2018-06-22T07:23:53.215Z,762.40
2018-06-22T07:24:53.257Z,756.30
2018-06-22T07:25:53.308Z,762.70
2018-06-22T07:26:53.380Z,754.60
2018-06-22T07:27:53.371Z,737.90
2018-06-22T07:28:53.453Z,761.60
2018-06-22T07:29:53.485Z,786.50
2018-06-22T07:30:53.702Z,780.00
2018-06-22T07:31:53.592Z,770.50
2018-06-22T07:32:53.608Z,760.80
2018-06-22T07:33:53.665Z,791.10
2018-06-22T07:34:53.679Z,777.50
2018-06-22T07:35:53.738Z,782.50
2018-06-22T07:36:53.776Z,828.60
2018-06-22T07:37:53.827Z,822.20
2018-06-22T07:38:53.870Z,825.00
2018-06-22T07:39:53.937Z,832.50
2018-06-22T07:40:53.948Z,843.40
2018-06-22T07:41:54.001Z,860.20
2018-06-22T07:42:54.263Z,885.80
2018-06-22T07:43:54.093Z,897.20
2018-06-22T07:44:54.140Z,917.30
2018-06-22T07:45:54.151Z,885.50
2018-06-22T07:46:54.220Z,932.00
2018-06-22T07:47:54.269Z,929.90
2018-06-22T07:48:54.298Z,933.30
2018-06-22T07:49:54.388Z,917.80
2018-06-22T07:50:54.372Z,918.50
2018-06-22T07:51:54.418Z,904.40
2018-06-22T07:52:54.488Z,923.50
2018-06-22T07:53:54.520Z,929.70
2018-06-22T07:54:54.785Z,914.30
2018-06-22T07:55:54.585Z,931.10
2018-06-22T07:56:54.646Z,907.10
2018-06-22T07:57:54.762Z,956.10
2018-06-22T07:58:54.730Z,925.90
2018-06-22T07:59:54.786Z,905.20
2018-06-22T08:00:54.811Z,915.40
2018-06-22T08:01:54.858Z,914.70
2018-06-22T08:02:54.929Z,904.80
2018-06-22T08:03:54.946Z,888.30
2018-06-22T08:04:55.003Z,894.30
2018-06-22T08:05:55.237Z,871.80
2018-06-22T08:06:55.078Z,870.20
2018-06-22T08:07:55.148Z,852.80
2018-06-22T08:08:55.159Z,884.70
2018-06-22T08:09:55.196Z,877.40
2018-06-22T08:10:55.243Z,863.00
2018-06-22T08:11:55.301Z,832.10
2018-06-22T08:12:55.323Z,802.00
2018-06-22T08:13:55.399Z,786.70
2018-06-22T08:14:55.447Z,768.00
2018-06-22T08:15:55.461Z,785.20
2018-06-22T08:16:55.523Z,790.20
2018-06-22T08:17:55.560Z,809.20
2018-06-22T08:18:55.599Z,840.10
2018-06-22T08:19:55.633Z,775.90
2018-06-22T08:20:55.685Z,767.60
2018-06-22T08:21:55.983Z,738.20
2018-06-22T08:22:55.762Z,764.00
2018-06-22T08:23:55.802Z,775.10
2018-06-22T08:24:55.858Z,759.40
2018-06-22T08:25:55.883Z,763.90
2018-06-22T08:26:55.990Z,786.80
2018-06-22T08:27:55.966Z,769.50
2018-06-22T08:28:56.012Z,756.80
2018-06-22T08:29:56.052Z,794.00
2018-06-22T08:30:56.089Z,822.20
2018-06-22T08:31:56.161Z,814.00
2018-06-22T08:32:56.183Z,823.20
2018-06-22T08:33:56.437Z,851.50
2018-06-22T08:34:56.295Z,851.40
2018-06-22T08:35:56.315Z,870.50
2018-06-22T08:36:56.339Z,862.50
2018-06-22T08:37:56.443Z,853.80
2018-06-22T08:38:56.458Z,880.70
2018-06-22T08:39:56.487Z,885.60
2018-06-22T08:40:56.531Z,880.50
2018-06-22T08:41:56.757Z,892.90
2018-06-22T08:42:56.640Z,896.40
2018-06-22T08:43:56.650Z,882.30
2018-06-22T08:44:56.700Z,871.30
2018-06-22T08:45:56.754Z,874.10
2018-06-22T08:46:56.778Z,864.40
2018-06-22T08:47:56.844Z,859.00
2018-06-22T08:48:56.886Z,879.60
2018-06-22T08:49:56.914Z,839.10
2018-06-22T08:50:56.970Z,845.80
2018-06-22T08:51:57.005Z,836.60
2018-06-22T08:52:57.046Z,832.90
2018-06-22T08:53:57.073Z,826.30
2018-06-22T08:54:57.145Z,839.40
2018-06-22T08:55:57.173Z,825.30
2018-06-22T08:56:57.196Z,827.20
2018-06-22T08:57:57.245Z,825.80
2018-06-22T08:58:57.299Z,813.00
2018-06-22T08:59:57.613Z,792.30
2018-06-22T09:00:57.398Z,811.70
2018-06-22T09:01:57.442Z,824.40
2018-06-22T09:02:57.478Z,821.30
2018-06-22T09:03:57.511Z,843.20
2018-06-22T09:04:57.540Z,855.90
2018-06-22T09:05:57.594Z,858.90
2018-06-22T09:06:57.611Z,854.80
2018-06-22T09:07:57.666Z,882.10
2018-06-22T09:08:57.694Z,863.70
2018-06-22T09:09:57.768Z,889.10
2018-06-22T09:10:57.820Z,856.80
2018-06-22T09:11:57.837Z,881.90
2018-06-22T09:12:57.878Z,902.90
2018-06-22T09:13:57.929Z,896.70
2018-06-22T09:14:57.946Z,892.20
2018-06-22T09:15:58.020Z,888.10
2018-06-22T09:16:58.045Z,901.50
2018-06-22T09:17:58.105Z,897.90
2018-06-22T09:18:58.152Z,896.80
2018-06-22T09:19:58.436Z,889.70
2018-06-22T09:20:58.262Z,882.20
2018-06-22T09:21:58.270Z,913.70
2018-06-22T09:22:58.312Z,898.60
2018-06-22T09:23:58.344Z,894.90
2018-06-22T09:24:58.394Z,908.80
2018-06-22T09:25:58.441Z,922.20
2018-06-22T09:26:58.483Z,908.60
2018-06-22T09:27:58.507Z,893.80
2018-06-22T09:28:58.590Z,904.30
2018-06-22T09:29:58.600Z,908.30
2018-06-22T09:30:58.655Z,918.00
2018-06-22T09:31:58.884Z,902.30
2018-06-22T09:32:58.707Z,919.80
2018-06-22T09:33:58.757Z,913.00
2018-06-22T09:34:58.825Z,921.50
2018-06-22T09:35:58.867Z,916.90
2018-06-22T09:36:58.904Z,903.30
2018-06-22T09:37:58.935Z,908.80
2018-06-22T09:38:58.999Z,920.90
2018-06-22T09:39:58.998Z,915.40
2018-06-22T09:40:59.056Z,895.40
2018-06-22T09:41:59.125Z,890.10
2018-06-22T09:42:59.376Z,895.40
2018-06-22T09:43:59.201Z,917.70
2018-06-22T09:44:59.237Z,913.00
2018-06-22T09:45:59.269Z,917.00
2018-06-22T09:46:59.323Z,900.20
2018-06-22T09:47:59.342Z,913.80
2018-06-22T09:48:59.398Z,887.90
2018-06-22T09:49:59.457Z,876.60
2018-06-22T09:50:59.484Z,875.30
2018-06-22T09:51:59.537Z,852.00
2018-06-22T09:52:59.630Z,867.00
2018-06-22T09:53:59.633Z,847.30
2018-06-22T09:54:59.643Z,816.50
2018-06-22T09:55:59.698Z,834.60
2018-06-22T09:56:59.741Z,845.00
2018-06-22T09:57:59.768Z,856.40
2018-06-22T09:58:59.795Z,861.30
2018-06-22T09:59:59.886Z,881.80
2018-06-22T10:00:59.888Z,869.60
2018-06-22T10:01:59.939Z,875.40
2018-06-22T10:02:59.973Z,874.00
2018-06-22T10:04:00.032Z,895.20
2018-06-22T10:05:00.077Z,902.00
2018-06-22T10:06:00.176Z,890.70
2018-06-22T10:07:00.159Z,902.70
2018-06-22T10:08:00.188Z,904.60
2018-06-22T10:09:00.254Z,909.40
2018-06-22T10:10:00.285Z,908.50
2018-06-22T10:11:00.537Z,900.40
2018-06-22T10:12:00.374Z,870.30
2018-06-22T10:13:00.403Z,864.80
2018-06-22T10:14:00.459Z,889.50
2018-06-22T10:15:00.488Z,870.20
2018-06-22T10:16:00.531Z,860.00
2018-06-22T10:17:00.574Z,855.40
2018-06-22T10:18:00.617Z,866.10
2018-06-22T10:19:00.646Z,859.80
2018-06-22T10:20:00.722Z,859.30
2018-06-22T10:21:00.748Z,866.20
2018-06-22T10:22:00.981Z,844.00
2018-06-22T10:23:00.828Z,836.50
2018-06-22T10:24:00.877Z,845.30
2018-06-22T10:25:00.913Z,828.90
2018-06-22T10:26:00.943Z,826.70
2018-06-22T10:27:01.073Z,830.40
2018-06-22T10:28:01.058Z,805.30
2018-06-22T10:29:01.118Z,797.10
2018-06-22T10:30:01.137Z,766.90
2018-06-22T10:31:01.199Z,766.60
2018-06-22T10:32:01.231Z,737.10
2018-06-22T10:33:01.481Z,726.50
2018-06-22T10:34:01.343Z,702.60
2018-06-22T10:35:01.369Z,715.90
2018-06-22T10:36:01.405Z,651.20
2018-06-22T10:37:01.428Z,688.90
2018-06-22T10:38:01.467Z,671.20
2018-06-22T10:39:01.539Z,677.00
2018-06-22T10:40:01.583Z,662.30
2018-06-22T10:41:01.622Z,633.30
2018-06-22T10:42:01.646Z,606.50
2018-06-22T10:43:01.704Z,593.40
2018-06-22T10:44:01.750Z,511.80
2018-06-22T10:45:01.789Z,492.80
2018-06-22T10:46:01.884Z,464.80
2018-06-22T10:47:01.884Z,488.40
2018-06-22T10:48:01.914Z,528.80
2018-06-22T10:49:02.177Z,490.10
2018-06-22T10:50:02.027Z,461.50
2018-06-22T10:51:02.060Z,468.10
2018-06-22T10:52:02.102Z,436.60
2018-06-22T10:53:02.178Z,410.70
2018-06-22T10:54:02.204Z,398.40
2018-06-22T10:55:02.239Z,384.90
2018-06-22T10:56:02.314Z,393.00
2018-06-22T10:57:02.340Z,258.50
2018-06-22T10:58:02.388Z,66.80
2018-06-22T10:59:02.427Z,60.10
2018-06-22T11:00:02.543Z,62.00
2018-06-22T11:01:02.522Z,63.80
2018-06-22T11:02:02.591Z,58.50
2018-06-22T11:03:02.631Z,60.40
2018-06-22T11:04:02.675Z,61.10
2018-06-22T11:05:02.699Z,60.00
2018-06-22T11:06:02.763Z,59.30
2018-06-22T11:07:02.808Z,60.60
2018-06-22T11:08:02.867Z,65.30
2018-06-22T11:09:02.935Z,62.70
2018-06-22T11:10:02.950Z,56.80
2018-06-22T11:11:02.982Z,54.30
2018-06-22T11:12:03.032Z,61.60
2018-06-22T11:13:03.107Z,48.50
2018-06-22T11:14:03.180Z,53.40
2018-06-22T11:15:03.169Z,63.70
2018-06-22T11:16:03.260Z,62.10
2018-06-22T11:17:03.416Z,63.20
2018-06-22T11:18:03.327Z,70.70
2018-06-22T11:19:03.401Z,66.20
2018-06-22T11:20:03.416Z,67.20
2018-06-22T11:21:03.505Z,70.90
2018-06-22T11:22:03.508Z,72.30
2018-06-22T11:23:03.574Z,74.60
2018-06-22T11:24:03.652Z,74.20
2018-06-22T11:25:03.691Z,81.30
2018-06-22T11:26:03.726Z,85.10
2018-06-22T11:27:03.767Z,78.40
2018-06-22T11:28:03.798Z,63.70
2018-06-22T11:29:03.873Z,63.30
2018-06-22T11:30:03.911Z,65.70
2018-06-22T11:31:03.956Z,72.80
2018-06-22T11:32:03.981Z,62.00
2018-06-22T11:33:04.060Z,63.90
2018-06-22T11:34:04.109Z,58.90
2018-06-22T11:35:04.137Z,68.90
2018-06-22T11:36:04.185Z,55.50
2018-06-22T11:37:04.245Z,63.30
2018-06-22T11:38:04.290Z,57.90
2018-06-22T11:39:04.320Z,65.50
2018-06-22T11:40:04.396Z,59.90
2018-06-22T11:41:04.439Z,60.30
2018-06-22T11:42:04.465Z,52.80
2018-06-22T11:43:04.724Z,61.50
2018-06-22T11:44:04.565Z,67.20
2018-06-22T11:45:04.616Z,64.00
2018-06-22T11:46:04.647Z,60.70
2018-06-22T11:47:04.708Z,53.20
2018-06-22T11:48:04.779Z,60.00
2018-06-22T11:49:04.832Z,62.40
2018-06-22T11:50:04.850Z,63.70
2018-06-22T11:51:04.983Z,63.60
2018-06-22T11:52:04.955Z,61.60
2018-06-22T11:53:04.996Z,59.80
2018-06-22T11:54:05.055Z,57.70
2018-06-22T11:55:05.077Z,69.80
2018-06-22T11:56:05.167Z,69.60
2018-06-22T11:57:05.179Z,65.10
2018-06-22T11:58:05.243Z,66.80
2018-06-22T11:59:05.349Z,73.90
2018-06-22T12:00:05.354Z,84.40
2018-06-22T12:01:05.391Z,89.80
2018-06-22T12:02:05.427Z,88.10
2018-06-22T12:03:05.482Z,83.00
2018-06-22T12:04:05.533Z,79.80
2018-06-22T12:05:05.568Z,112.50
2018-06-22T12:06:05.641Z,102.30
2018-06-22T12:07:05.691Z,111.00
2018-06-22T12:08:05.719Z,112.80
2018-06-22T12:09:05.776Z,93.20
2018-06-22T12:10:05.860Z,80.40
2018-06-22T12:11:05.866Z,77.40
2018-06-22T12:12:05.921Z,67.40
2018-06-22T12:13:05.966Z,90.50
2018-06-22T12:14:06.028Z,86.60
2018-06-22T12:15:06.075Z,115.00
2018-06-22T12:16:06.107Z,96.30
2018-06-22T12:17:06.192Z,91.20
2018-06-22T12:18:06.236Z,76.10
2018-06-22T12:19:06.341Z,107.20
2018-06-22T12:20:06.334Z,115.70
2018-06-22T12:21:06.383Z,107.70
2018-06-22T12:22:06.454Z,130.90
2018-06-22T12:23:06.464Z,113.80
2018-06-22T12:24:06.525Z,143.70
2018-06-22T12:25:06.586Z,154.50
2018-06-22T12:26:06.825Z,97.20
2018-06-22T12:27:06.682Z,107.40
2018-06-22T12:28:06.704Z,97.10
2018-06-22T12:29:06.765Z,160.90
2018-06-22T12:30:06.830Z,126.20
2018-06-22T12:31:06.868Z,139.50
2018-06-22T12:32:06.909Z,198.90